Time;durP1;ratioP1;P1;durP2;ratioP2;P2;SDS_P1;SDS_P2;PMS_P1;PMS_P2;Temp;Humidity;BMP_temperature;BMP_pressure;BME280_temperature;BME280_humidity;BME280_pressure;Samples;Min_cycle;Max_cycle;Signal;HPM_P1;HPM_P2
2022/04/23 00:00:07;;;;;;;13.23;10.67;;;9.60;99.90;;;;;;4935136;28;20220;-76
2022/04/23 00:02:33;;;;;;;13.27;10.17;;;9.60;99.90;;;;;;4918098;29;20290;-77
2022/04/23 00:04:58;;;;;;;12.83;9.90;;;9.60;99.90;;;;;;4918313;29;20646;-76
2022/04/23 00:07:24;;;;;;;11.50;9.43;;;9.60;99.90;;;;;;4935073;29;20280;-77
2022/04/23 00:09:49;;;;;;;13.93;10.17;;;9.50;99.90;;;;;;4934752;29;20180;-76
2022/04/23 00:12:15;;;;;;;13.70;10.30;;;9.50;99.90;;;;;;4917631;29;20254;-77
2022/04/23 00:14:42;;;;;;;13.27;10.43;;;9.50;99.90;;;;;;4934933;29;20214;-77
2022/04/23 00:17:08;;;;;;;11.53;9.63;;;9.50;99.90;;;;;;4917899;29;20255;-76
2022/04/23 00:19:35;;;;;;;11.23;9.67;;;9.50;99.90;;;;;;4917007;29;20207;-77
2022/04/23 00:22:01;;;;;;;13.17;10.93;;;9.50;99.90;;;;;;4918700;29;20217;-78
2022/04/23 00:24:26;;;;;;;16.03;11.23;;;9.50;99.90;;;;;;4934896;28;20705;-76
2022/04/23 00:26:52;;;;;;;13.27;11.00;;;9.50;99.90;;;;;;4917745;29;20315;-76
2022/04/23 00:29:17;;;;;;;15.20;10.97;;;9.40;99.90;;;;;;4934032;28;20306;-78
2022/04/23 00:31:43;;;;;;;12.40;10.37;;;9.40;99.90;;;;;;4934512;29;20211;-76
2022/04/23 00:34:08;;;;;;;14.57;11.07;;;9.40;99.90;;;;;;4934768;28;20225;-77
2022/04/23 00:36:34;;;;;;;16.83;11.83;;;9.40;99.90;;;;;;4917632;29;20656;-76
2022/04/23 00:38:59;;;;;;;14.13;11.10;;;9.40;99.90;;;;;;4933825;29;20207;-76
2022/04/23 00:41:45;;;;;;;13.77;11.63;;;9.40;99.90;;;;;;4934429;29;20291;-76
2022/04/23 00:44:10;;;;;;;13.70;12.07;;;9.30;99.90;;;;;;4935335;29;20733;-78
2022/04/23 00:46:36;;;;;;;14.87;11.80;;;9.30;99.90;;;;;;4938327;28;20302;-77
2022/04/23 00:49:03;;;;;;;14.03;11.77;;;9.30;99.90;;;;;;4938625;29;20183;-77
2022/04/23 00:51:29;;;;;;;13.20;11.27;;;9.20;99.90;;;;;;4938265;29;20208;-77
2022/04/23 00:53:57;;;;;;;14.03;12.03;;;9.20;99.90;;;;;;4938656;28;20219;-75
2022/04/23 00:56:23;;;;;;;13.00;11.57;;;9.10;99.90;;;;;;4938415;29;20218;-77
2022/04/23 00:58:50;;;;;;;13.17;11.53;;;9.10;99.90;;;;;;4937615;28;20207;-77
2022/04/23 01:01:15;;;;;;;15.73;11.67;;;9.10;99.90;;;;;;4938340;29;20179;-77
2022/04/23 01:03:42;;;;;;;14.77;12.33;;;9.10;99.90;;;;;;4938912;29;20675;-77
2022/04/23 01:06:10;;;;;;;15.50;12.53;;;9.00;99.90;;;;;;4938065;28;20212;-77
2022/04/23 01:08:37;;;;;;;13.57;12.20;;;9.00;99.90;;;;;;4920469;29;20207;-78
2022/04/23 01:11:03;;;;;;;13.27;11.77;;;9.00;99.90;;;;;;4938111;28;20246;-77
2022/04/23 01:13:28;;;;;;;16.40;12.53;;;9.00;99.90;;;;;;4938043;29;20224;-77
2022/04/23 01:16:07;;;;;;;13.77;11.77;;;8.90;99.90;;;;;;4938610;29;20244;-77
2022/04/23 01:18:36;;;;;;;13.83;11.83;;;8.90;99.90;;;;;;4920266;29;20218;-76
2022/04/23 01:21:03;;;;;;;15.50;12.37;;;8.90;99.90;;;;;;4937962;29;20636;-76
2022/04/23 01:23:30;;;;;;;19.07;12.23;;;8.80;99.90;;;;;;4937993;28;20254;-76
2022/04/23 01:25:56;;;;;;;16.23;12.73;;;8.80;99.90;;;;;;4938000;29;20564;-76
2022/04/23 01:28:23;;;;;;;15.90;12.43;;;8.70;99.90;;;;;;4937088;28;20208;-77
2022/04/23 01:30:54;;;;;;;15.97;12.87;;;8.70;99.90;;;;;;4921042;29;20183;-77
2022/04/23 01:33:20;;;;;;;16.10;13.37;;;8.70;99.90;;;;;;4937800;29;20247;-76
2022/04/23 01:35:46;;;;;;;15.83;13.57;;;8.70;99.90;;;;;;4912776;29;20218;-77
2022/04/23 01:38:12;;;;;;;15.63;12.47;;;8.60;99.90;;;;;;4936751;29;20223;-76
2022/04/23 01:40:38;;;;;;;16.60;12.53;;;8.60;99.90;;;;;;4937400;28;20215;-76
2022/04/23 01:43:04;;;;;;;16.23;12.70;;;8.60;99.90;;;;;;4938114;29;20637;-77
2022/04/23 01:45:30;;;;;;;15.57;13.37;;;8.60;99.90;;;;;;4937521;29;20696;-77
2022/04/23 01:47:55;;;;;;;14.20;12.60;;;8.50;99.90;;;;;;4937074;28;20273;-77
2022/04/23 01:50:21;;;;;;;18.87;13.23;;;8.50;99.90;;;;;;4919826;29;20212;-75
2022/04/23 01:52:47;;;;;;;15.37;12.63;;;8.50;99.90;;;;;;4937144;28;20307;-77
2022/04/23 01:55:12;;;;;;;14.10;12.30;;;8.40;99.90;;;;;;4937176;29;20187;-76
2022/04/23 01:57:38;;;;;;;16.30;12.80;;;8.40;99.90;;;;;;4932688;29;20200;-78
2022/04/23 02:00:15;;;;;;;16.03;12.80;;;8.40;99.90;;;;;;4936933;28;20641;-78
2022/04/23 02:02:42;;;;;;;15.67;13.37;;;8.40;99.90;;;;;;4937073;29;20211;-77
2022/04/23 02:05:08;;;;;;;13.83;11.80;;;8.40;99.90;;;;;;4920115;29;20212;-76
2022/04/23 02:07:45;;;;;;;15.27;12.87;;;8.40;99.90;;;;;;4919434;29;20219;-76
2022/04/23 02:10:14;;;;;;;15.30;12.50;;;8.50;99.90;;;;;;4913483;29;20192;-77
2022/04/23 02:12:39;;;;;;;13.13;11.50;;;8.50;99.90;;;;;;4918425;29;20208;-77
2022/04/23 02:15:09;;;;;;;14.87;12.23;;;8.40;99.90;;;;;;4918073;29;20267;-76
2022/04/23 02:17:40;;;;;;;13.03;11.33;;;8.40;99.90;;;;;;4900641;29;20220;-77
2022/04/23 02:20:11;;;;;;;16.10;12.40;;;8.40;99.90;;;;;;4917737;29;20204;-77
2022/04/23 02:22:37;;;;;;;12.97;11.67;;;8.40;99.90;;;;;;4917500;29;20216;-77
2022/04/23 02:25:05;;;;;;;14.60;11.50;;;8.40;99.90;;;;;;4918430;29;20192;-77
2022/04/23 02:27:43;;;;;;;14.47;11.70;;;8.40;99.90;;;;;;4900549;29;20580;-76
2022/04/23 02:30:09;;;;;;;15.80;12.07;;;8.40;99.90;;;;;;4917449;29;20303;-76
2022/04/23 02:32:35;;;;;;;14.00;11.83;;;8.40;99.90;;;;;;4917610;29;20226;-77
2022/04/23 02:35:00;;;;;;;13.40;11.13;;;8.40;99.90;;;;;;4917241;29;20295;-77
2022/04/23 02:37:27;;;;;;;15.23;11.33;;;8.40;99.90;;;;;;4928497;29;20765;-76
2022/04/23 02:39:52;;;;;;;13.67;11.17;;;8.30;99.90;;;;;;4935866;29;20183;-77
2022/04/23 02:42:18;;;;;;;14.37;11.97;;;8.30;99.90;;;;;;4936488;28;20215;-77
2022/04/23 02:44:45;;;;;;;16.10;12.40;;;8.30;99.90;;;;;;4919056;29;20211;-76
2022/04/23 02:47:11;;;;;;;17.80;12.03;;;8.40;99.90;;;;;;4919311;29;20576;-77
2022/04/23 02:49:36;;;;;;;12.23;10.50;;;8.30;99.90;;;;;;4935601;29;20291;-77
2022/04/23 02:52:02;;;;;;;11.83;10.57;;;8.30;99.90;;;;;;4920671;29;20235;-77
2022/04/23 02:54:27;;;;;;;13.27;11.17;;;8.30;99.90;;;;;;4919581;29;20212;-77
2022/04/23 02:56:54;;;;;;;13.20;10.93;;;8.30;99.90;;;;;;4936911;29;20204;-76
2022/04/23 02:59:19;;;;;;;15.93;12.30;;;8.30;99.90;;;;;;4936600;28;20294;-76
2022/04/23 03:01:45;;;;;;;14.53;11.13;;;8.30;99.90;;;;;;4936734;29;20700;-76
2022/04/23 03:04:11;;;;;;;15.17;11.60;;;8.30;99.90;;;;;;4919616;29;20199;-76
2022/04/23 03:06:36;;;;;;;14.40;11.30;;;8.30;99.90;;;;;;4936816;29;20216;-75
2022/04/23 03:09:03;;;;;;;13.13;10.70;;;8.30;99.90;;;;;;4918166;29;20204;-76
2022/04/23 03:11:30;;;;;;;14.77;11.43;;;8.30;99.90;;;;;;4916694;29;20215;-76
2022/04/23 03:13:56;;;;;;;11.30;10.07;;;8.30;99.90;;;;;;4918858;29;20231;-75
2022/04/23 03:16:22;;;;;;;12.60;10.97;;;8.30;99.90;;;;;;4935583;28;20215;-76
2022/04/23 03:18:47;;;;;;;15.07;11.10;;;8.30;99.90;;;;;;4935469;29;20175;-76
2022/04/23 03:21:13;;;;;;;15.27;11.57;;;8.30;99.90;;;;;;4935997;29;20211;-76
2022/04/23 03:23:38;;;;;;;13.53;10.60;;;8.20;99.90;;;;;;4918386;29;20693;-76
2022/04/23 03:26:04;;;;;;;13.97;11.67;;;8.20;99.90;;;;;;4918451;29;20204;-77
2022/04/23 03:28:29;;;;;;;12.23;10.57;;;8.20;99.90;;;;;;4917713;29;20266;-76
2022/04/23 03:30:55;;;;;;;14.13;10.97;;;8.20;99.90;;;;;;4919244;29;20180;-76
2022/04/23 03:33:21;;;;;;;13.07;10.63;;;8.20;99.90;;;;;;4918099;29;20219;-74
2022/04/23 03:35:46;;;;;;;12.07;10.07;;;8.20;99.90;;;;;;4935526;28;20208;-76
2022/04/23 03:38:12;;;;;;;13.70;10.67;;;8.10;99.90;;;;;;4917639;29;20228;-76
2022/04/23 03:40:38;;;;;;;15.70;11.63;;;8.10;99.90;;;;;;4917969;29;20526;-76
2022/04/23 03:43:04;;;;;;;13.77;11.03;;;8.10;99.90;;;;;;4935928;29;20262;-76
2022/04/23 03:45:31;;;;;;;15.17;11.63;;;8.10;99.90;;;;;;4917880;29;20303;-77
2022/04/23 03:47:57;;;;;;;14.50;11.50;;;8.10;99.90;;;;;;4917678;29;20226;-76
2022/04/23 03:50:22;;;;;;;16.70;11.10;;;8.10;99.90;;;;;;4934628;29;20708;-75
2022/04/23 03:52:49;;;;;;;14.70;11.97;;;8.10;99.90;;;;;;4935556;28;20219;-77
2022/04/23 03:55:15;;;;;;;14.53;11.63;;;8.00;99.90;;;;;;4935083;29;20191;-76
2022/04/23 03:57:44;;;;;;;15.77;11.93;;;8.00;99.90;;;;;;4935229;29;20200;-76
2022/04/23 04:00:10;;;;;;;13.57;11.47;;;8.10;99.90;;;;;;4934838;28;20216;-76
2022/04/23 04:02:35;;;;;;;15.43;11.47;;;8.00;99.90;;;;;;4934720;29;20704;-76
2022/04/23 04:05:01;;;;;;;14.40;11.40;;;8.10;99.90;;;;;;4934768;29;20271;-76
2022/04/23 04:07:27;;;;;;;16.97;12.00;;;8.10;99.90;;;;;;4917192;29;20211;-76
2022/04/23 04:09:52;;;;;;;17.23;12.43;;;8.10;99.90;;;;;;4932285;29;20176;-76
2022/04/23 04:12:18;;;;;;;15.07;12.20;;;8.20;99.90;;;;;;4934485;29;20286;-76
2022/04/23 04:14:43;;;;;;;17.73;13.37;;;8.20;99.90;;;;;;4934740;29;20208;-77
2022/04/23 04:17:10;;;;;;;16.03;12.17;;;8.10;99.90;;;;;;4917418;29;20676;-76
2022/04/23 04:19:37;;;;;;;14.67;12.27;;;8.10;99.90;;;;;;4933046;29;20591;-76
2022/04/23 04:22:03;;;;;;;18.30;12.60;;;8.20;99.90;;;;;;4935938;29;20552;-78
2022/04/23 04:24:30;;;;;;;15.87;13.60;;;8.20;99.90;;;;;;4935023;29;20219;-76
2022/04/23 04:26:57;;;;;;;16.57;13.13;;;8.30;99.90;;;;;;4916148;29;20299;-75
2022/04/23 04:29:24;;;;;;;15.93;12.57;;;8.20;99.90;;;;;;4933994;29;20227;-76
2022/04/23 04:31:49;;;;;;;16.03;13.07;;;8.30;99.90;;;;;;4934395;29;20215;-76
2022/04/23 04:34:20;;;;;;;16.50;13.13;;;8.40;99.90;;;;;;4934743;29;20179;-76
2022/04/23 04:36:47;;;;;;;16.07;12.23;;;10.20;99.90;;;;;;4938309;23;20287;-70
2022/04/23 04:39:14;;;;;;;14.17;11.93;;;11.60;99.90;;;;;;4953131;29;20218;-74
2022/04/23 04:41:40;;;;;;;15.17;12.00;;;12.50;99.90;;;;;;4954006;28;20210;-73
2022/04/23 04:44:06;;;;;;;14.13;11.83;;;13.20;99.90;;;;;;4953876;28;20643;-73
2022/04/23 04:46:36;;;;;;;12.80;10.83;;;14.00;99.90;;;;;;4936592;29;20207;-74
2022/04/23 04:49:03;;;;;;;12.87;10.70;;;14.60;99.90;;;;;;4917575;29;20227;-74
2022/04/23 04:51:29;;;;;;;11.87;10.63;;;15.30;99.90;;;;;;4917512;29;20215;-73
2022/04/23 04:53:55;;;;;;;13.17;10.70;;;15.10;99.90;;;;;;4934416;29;20717;-73
2022/04/23 04:56:21;;;;;;;12.93;10.90;;;15.60;99.90;;;;;;4934422;28;20212;-73
2022/04/23 04:58:47;;;;;;;13.67;11.00;;;16.40;99.90;;;;;;4933944;29;20211;-73
2022/04/23 05:01:13;;;;;;;13.02;10.77;;;16.70;99.90;;;;;;4934629;28;20191;-74
2022/04/23 05:03:40;;;;;;;12.35;10.43;;;16.50;99.90;;;;;;4934950;29;20172;-73
2022/04/23 05:06:06;;;;;;;11.98;10.38;;;16.50;99.90;;;;;;4934475;29;20215;-73
2022/04/23 05:08:34;;;;;;;10.60;9.50;;;17.10;99.90;;;;;;4933902;28;20216;-73
2022/04/23 05:10:59;;;;;;;11.75;10.38;;;18.70;99.90;;;;;;4934000;29;20207;-73
2022/04/23 05:13:25;;;;;;;11.95;10.32;;;18.70;99.90;;;;;;4916693;28;20720;-73
2022/04/23 05:15:51;;;;;;;13.75;11.20;;;18.70;99.90;;;;;;4934319;29;20176;-73
2022/04/23 05:18:17;;;;;;;12.18;9.82;;;19.30;99.90;;;;;;4933037;29;20643;-73
2022/04/23 05:20:42;;;;;;;11.30;9.93;;;19.40;99.90;;;;;;4933568;28;20219;-73
2022/04/23 05:23:08;;;;;;;13.23;10.23;;;19.30;99.90;;;;;;4916772;29;20219;-74
2022/04/23 05:25:33;;;;;;;10.90;9.80;;;18.60;99.90;;;;;;4916752;29;20838;-73
2022/04/23 05:27:59;;;;;;;11.30;9.98;;;18.00;99.90;;;;;;4933299;29;20263;-69
2022/04/23 05:30:24;;;;;;;10.75;9.63;;;18.80;99.90;;;;;;4934562;29;20754;-71
2022/04/23 05:32:50;;;;;;;11.43;10.02;;;19.40;99.90;;;;;;4920139;29;20299;-72
2022/04/23 05:35:15;;;;;;;11.23;10.02;;;20.10;99.90;;;;;;4937231;29;20236;-72
2022/04/23 05:37:41;;;;;;;11.40;9.73;;;21.10;99.90;;;;;;4935719;28;20629;-71
2022/04/23 05:40:07;;;;;;;10.57;9.55;;;20.50;99.90;;;;;;4919749;29;20179;-72
2022/04/23 05:42:33;;;;;;;10.63;9.52;;;20.80;99.90;;;;;;4937633;29;20550;-72
2022/04/23 05:44:59;;;;;;;11.77;9.85;;;20.90;99.90;;;;;;4937455;28;20579;-72
2022/04/23 05:47:24;;;;;;;12.48;9.77;;;20.90;99.90;;;;;;4936741;29;20216;-72
2022/04/23 05:49:49;;;;;;;10.52;9.43;;;19.80;99.90;;;;;;4936166;28;20352;-71
2022/04/23 05:52:15;;;;;;;10.07;8.98;;;20.70;99.90;;;;;;4936802;29;20211;-72
2022/04/23 05:54:40;;;;;;;10.85;9.73;;;20.80;99.90;;;;;;4937002;29;20202;-71
2022/04/23 05:57:06;;;;;;;10.70;9.63;;;19.90;99.90;;;;;;4936437;28;20218;-72
2022/04/23 05:59:31;;;;;;;10.10;9.10;;;20.40;99.90;;;;;;4935748;29;20215;-72
2022/04/23 06:01:57;;;;;;;10.77;9.68;;;21.20;99.90;;;;;;4936656;28;20254;-72
2022/04/23 06:04:31;;;;;;;9.32;8.43;;;19.50;99.90;;;;;;4918854;29;20187;-72
2022/04/23 06:06:57;;;;;;;10.65;9.48;;;19.90;99.90;;;;;;4916822;29;20721;-73
2022/04/23 06:09:22;;;;;;;11.30;9.32;;;19.80;99.90;;;;;;4932856;29;20216;-71
2022/04/23 06:11:48;;;;;;;10.82;8.50;;;20.00;99.90;;;;;;4936453;29;20239;-72
2022/04/23 06:14:13;;;;;;;11.15;9.45;;;21.40;99.00;;;;;;4936882;28;20215;-72
2022/04/23 06:16:39;;;;;;;10.82;9.10;;;21.70;96.80;;;;;;4936468;29;20207;-72
2022/04/23 06:19:05;;;;;;;9.20;8.30;;;21.70;96.60;;;;;;4936074;29;20184;-72
2022/04/23 06:21:31;;;;;;;8.88;7.95;;;21.50;96.60;;;;;;4936252;29;20266;-73
2022/04/23 06:23:56;;;;;;;9.15;8.20;;;21.90;95.40;;;;;;4919088;29;20207;-73
2022/04/23 06:26:22;;;;;;;9.57;8.57;;;22.40;94.70;;;;;;4936008;28;20216;-71
2022/04/23 06:28:47;;;;;;;9.40;8.02;;;20.90;94.70;;;;;;4935432;29;20291;-72
2022/04/23 06:31:13;;;;;;;10.32;9.23;;;20.30;96.20;;;;;;4935947;28;20184;-72
2022/04/23 06:33:39;;;;;;;9.90;8.60;;;21.10;96.10;;;;;;4936156;29;20215;-71
2022/04/23 06:36:05;;;;;;;9.50;8.38;;;20.90;95.00;;;;;;4935697;29;20219;-73
2022/04/23 06:38:30;;;;;;;10.73;8.52;;;21.30;94.80;;;;;;4934460;28;20227;-71
2022/04/23 06:40:55;;;;;;;9.77;8.60;;;20.60;95.40;;;;;;4918556;29;20710;-72
2022/04/23 06:43:21;;;;;;;10.50;8.35;;;20.50;96.10;;;;;;4934474;28;20200;-71
2022/04/23 06:45:46;;;;;;;43.65;32.75;;;20.80;95.70;;;;;;4936038;29;20183;-72
2022/04/23 06:48:12;;;;;;;9.32;7.93;;;20.60;95.90;;;;;;4934506;29;20667;-72
2022/04/23 06:50:37;;;;;;;9.30;8.20;;;19.80;95.20;;;;;;4935291;28;20216;-71
2022/04/23 06:53:04;;;;;;;9.50;8.00;;;19.40;96.50;;;;;;4918025;29;20727;-72
2022/04/23 06:55:30;;;;;;;10.20;8.40;;;19.10;96.60;;;;;;4918352;29;20219;-72
2022/04/23 06:57:56;;;;;;;8.38;7.38;;;19.50;96.30;;;;;;4935225;29;20204;-72
2022/04/23 07:00:22;;;;;;;7.72;7.00;;;19.20;96.70;;;;;;4934755;29;20270;-72
2022/04/23 07:02:49;;;;;;;7.15;6.45;;;19.90;96.30;;;;;;4935404;28;20585;-72
2022/04/23 07:05:15;;;;;;;10.48;7.28;;;20.80;95.90;;;;;;4935229;29;20214;-75
2022/04/23 07:07:41;;;;;;;7.53;6.70;;;20.90;93.60;;;;;;4917489;29;20215;-72
2022/04/23 07:10:06;;;;;;;8.43;7.20;;;19.70;94.80;;;;;;4918036;29;20182;-72
2022/04/23 07:12:33;;;;;;;7.57;6.70;;;19.90;95.30;;;;;;4935523;29;20279;-72
2022/04/23 07:14:59;;;;;;;7.82;7.03;;;19.70;95.50;;;;;;4935050;28;20238;-72
2022/04/23 07:17:26;;;;;;;7.82;6.97;;;20.10;95.90;;;;;;4934698;29;20215;-72
2022/04/23 07:19:53;;;;;;;7.82;7.03;;;20.60;94.60;;;;;;4934278;28;20687;-72
2022/04/23 07:22:19;;;;;;;9.05;7.18;;;20.20;95.00;;;;;;4917902;29;20238;-72
2022/04/23 07:24:45;;;;;;;7.30;6.60;;;20.20;94.10;;;;;;4935508;29;20199;-73
2022/04/23 07:27:11;;;;;;;8.48;7.00;;;20.00;94.60;;;;;;4934935;28;20246;-73
2022/04/23 07:29:37;;;;;;;7.72;6.63;;;19.70;94.90;;;;;;4934290;29;20700;-74
2022/04/23 07:32:04;;;;;;;8.90;6.45;;;20.90;94.40;;;;;;4914434;29;20831;-72
2022/04/23 07:37:29;;;;;;;7.50;6.68;;;23.10;91.40;;;;;;4934657;28;20230;-73
2022/04/23 07:39:58;;;;;;;7.47;6.45;;;20.50;92.00;;;;;;4934465;29;20198;-72
2022/04/23 07:42:25;;;;;;;7.88;6.57;;;20.10;93.40;;;;;;4934623;29;20219;-72
2022/04/23 07:44:50;;;;;;;8.10;6.63;;;19.90;94.00;;;;;;4934750;28;20223;-72
2022/04/23 07:47:15;;;;;;;7.95;7.15;;;20.70;93.40;;;;;;4934977;29;20219;-72
2022/04/23 07:49:41;;;;;;;9.55;7.85;;;19.70;93.90;;;;;;4934126;28;20227;-72
2022/04/23 07:52:07;;;;;;;8.57;6.95;;;18.90;95.10;;;;;;4918128;29;20204;-72
2022/04/23 07:54:32;;;;;;;8.02;6.80;;;20.50;94.70;;;;;;4935302;29;20258;-72
2022/04/23 07:56:58;;;;;;;8.88;7.78;;;20.30;94.00;;;;;;4917707;29;20282;-72
2022/04/23 07:59:24;;;;;;;8.07;7.28;;;20.70;93.70;;;;;;4934581;29;20214;-72
2022/04/23 08:01:51;;;;;;;9.13;6.80;;;21.70;93.00;;;;;;4918190;29;20204;-72
2022/04/23 08:04:16;;;;;;;8.25;7.45;;;20.60;93.40;;;;;;4934911;29;20172;-71
2022/04/23 08:06:42;;;;;;;8.25;7.43;;;20.70;93.90;;;;;;4935519;29;20184;-72
2022/04/23 08:09:07;;;;;;;8.68;7.78;;;20.50;93.40;;;;;;4934162;28;20223;-72
2022/04/23 08:11:33;;;;;;;7.70;7.00;;;21.20;93.40;;;;;;4934503;29;20208;-72
2022/04/23 08:13:58;;;;;;;9.27;7.53;;;20.50;93.70;;;;;;4934841;28;20696;-72
2022/04/23 08:16:26;;;;;;;9.15;7.75;;;20.10;94.00;;;;;;4934707;29;20653;-71
2022/04/23 08:18:52;;;;;;;7.85;7.05;;;19.60;95.40;;;;;;4933164;29;20286;-71
2022/04/23 08:21:18;;;;;;;10.15;7.85;;;20.50;94.40;;;;;;4934503;28;20239;-71
2022/04/23 08:23:43;;;;;;;10.35;7.40;;;20.50;94.00;;;;;;4934396;29;20298;-72
2022/04/23 08:26:09;;;;;;;10.90;8.50;;;20.30;94.00;;;;;;4934550;28;20215;-71
2022/04/23 08:31:18;;;;;;;11.60;8.75;;;20.50;95.00;;;;;;4934269;28;20186;-72
2022/04/23 08:33:59;;;;;;;12.68;10.30;;;21.00;94.00;;;;;;4933514;29;20287;-72
2022/04/23 08:36:36;;;;;;;8.50;7.18;;;21.20;93.90;;;;;;4934455;29;20212;-71
2022/04/23 08:39:04;;;;;;;10.15;8.07;;;21.40;93.70;;;;;;4917017;29;20666;-71
2022/04/23 08:41:30;;;;;;;8.73;7.82;;;21.80;93.20;;;;;;4917006;29;20214;-72
2022/04/23 08:44:04;;;;;;;9.23;7.68;;;21.90;92.80;;;;;;4934419;28;20214;-72
2022/04/23 08:46:31;;;;;;;8.23;7.35;;;21.90;92.80;;;;;;4934325;29;20757;-72
2022/04/23 08:49:16;;;;;;;7.95;7.00;;;22.30;92.10;;;;;;4916932;29;20199;-75
2022/04/23 08:51:47;;;;;;;8.25;7.45;;;22.90;91.60;;;;;;4934855;29;20271;-71
2022/04/23 08:54:15;;;;;;;7.57;6.68;;;23.90;90.50;;;;;;4934403;29;20222;-72
2022/04/23 08:56:44;;;;;;;8.93;6.97;;;22.00;91.80;;;;;;4934010;28;20212;-73
2022/04/23 08:59:14;;;;;;;7.20;6.43;;;21.90;91.50;;;;;;4933599;29;20619;-73
2022/04/23 09:01:40;;;;;;;7.95;7.15;;;21.10;91.80;;;;;;4934292;28;20215;-73
2022/04/23 09:04:07;;;;;;;9.60;6.93;;;20.40;93.10;;;;;;4934244;29;20665;-73
2022/04/23 09:06:34;;;;;;;7.05;6.35;;;20.50;93.30;;;;;;4937576;29;20195;-73
2022/04/23 09:09:13;;;;;;;6.72;6.13;;;20.20;93.50;;;;;;4937491;28;20425;-73
2022/04/23 09:11:40;;;;;;;7.18;6.47;;;19.00;94.10;;;;;;4937843;29;20266;-74
2022/04/23 09:14:07;;;;;;;7.25;5.97;;;18.70;95.10;;;;;;4937976;28;20223;-73
2022/04/23 09:25:10;;;;;;;6.45;5.85;;;19.40;94.80;;;;;;4938248;28;20258;-72
2022/04/23 09:27:36;;;;;;;6.47;5.60;;;18.40;95.60;;;;;;4921023;29;20200;-72
2022/04/23 09:30:07;;;;;;;6.65;6.05;;;19.00;95.60;;;;;;4936984;29;20290;-72
2022/04/23 09:32:33;;;;;;;7.03;6.20;;;19.10;95.00;;;;;;4937567;28;20630;-72
2022/04/23 09:35:09;;;;;;;6.68;5.85;;;18.30;95.50;;;;;;4937770;29;20298;-72
2022/04/23 09:40:25;;;;;;;6.05;5.45;;;18.30;95.10;;;;;;4937070;29;20705;-72
2022/04/23 09:43:03;;;;;;;6.47;5.85;;;18.30;94.60;;;;;;4938231;29;20176;-72
2022/04/23 09:45:29;;;;;;;5.85;5.03;;;17.90;95.40;;;;;;4920102;29;20211;-73
2022/04/23 09:47:56;;;;;;;5.95;5.35;;;18.20;95.00;;;;;;4937383;29;20922;-72
2022/04/23 09:50:22;;;;;;;5.70;5.10;;;17.90;95.10;;;;;;4920042;29;20606;-71
2022/04/23 09:52:51;;;;;;;6.65;5.95;;;17.80;95.60;;;;;;4920247;29;20572;-72
2022/04/23 09:55:19;;;;;;;6.63;5.88;;;17.70;96.00;;;;;;4937207;28;20270;-72
2022/04/23 09:57:46;;;;;;;6.70;5.57;;;17.40;96.30;;;;;;4920130;29;20200;-72
2022/04/23 10:00:12;;;;;;;8.07;6.05;;;17.40;96.70;;;;;;4919748;29;20294;-72
2022/04/23 10:02:41;;;;;;;5.95;5.35;;;17.20;96.80;;;;;;4937085;28;20303;-72
2022/04/23 10:05:09;;;;;;;8.95;5.82;;;17.50;96.90;;;;;;4937225;29;20713;-72
2022/04/23 10:07:37;;;;;;;6.80;5.95;;;18.40;95.90;;;;;;4919586;29;20262;-74
2022/04/23 10:10:03;;;;;;;6.97;5.80;;;18.30;95.30;;;;;;4916327;29;20199;-72
2022/04/23 10:12:33;;;;;;;6.20;5.20;;;18.30;95.40;;;;;;4934775;29;20219;-73
2022/04/23 10:15:00;;;;;;;6.22;5.45;;;18.40;95.50;;;;;;4936912;28;20208;-70
2022/04/23 10:17:28;;;;;;;7.88;5.47;;;18.50;95.50;;;;;;4916948;29;20226;-72
2022/04/23 10:19:55;;;;;;;6.13;5.13;;;18.30;95.80;;;;;;4935018;28;20294;-71
2022/04/23 10:22:25;;;;;;;5.78;5.00;;;18.50;95.10;;;;;;4918719;29;20199;-72
2022/04/23 10:25:27;;;;;;;5.55;4.80;;;18.40;94.90;;;;;;4935867;29;20176;-72
2022/04/23 10:27:55;;;;;;;5.38;4.80;;;18.00;94.40;;;;;;4927047;29;20274;-72
2022/04/23 10:30:21;;;;;;;5.22;4.72;;;17.60;95.10;;;;;;4934781;29;20212;-72
2022/04/23 10:32:47;;;;;;;6.75;6.05;;;17.70;95.60;;;;;;4935641;28;20222;-72
2022/04/23 10:35:19;;;;;;;8.57;6.43;;;17.50;96.00;;;;;;4918038;29;20215;-72
2022/04/23 10:37:49;;;;;;;8.57;6.50;;;17.20;96.60;;;;;;4951296;23;20733;-77
2022/04/23 10:40:18;;;;;;;6.45;5.85;;;17.40;96.80;;;;;;4923556;29;20180;-76
2022/04/23 10:43:07;;;;;;;6.45;5.63;;;17.20;96.60;;;;;;4919056;29;20183;-77
2022/04/23 10:45:38;;;;;;;6.28;5.68;;;17.30;96.50;;;;;;4935700;29;20215;-76
2022/04/23 10:48:23;;;;;;;6.32;5.72;;;17.00;96.90;;;;;;4934884;29;20218;-77
2022/04/23 10:51:04;;;;;;;6.32;5.72;;;17.00;97.20;;;;;;4935607;29;20290;-77
2022/04/23 10:53:37;;;;;;;6.45;5.45;;;16.80;97.70;;;;;;4935346;29;20220;-77
2022/04/23 10:56:09;;;;;;;6.25;5.65;;;17.30;97.10;;;;;;4918192;29;20762;-76
2022/04/23 10:58:37;;;;;;;6.40;5.75;;;17.10;96.40;;;;;;4916013;29;20697;-77
2022/04/23 11:01:24;;;;;;;6.05;5.32;;;16.90;96.30;;;;;;4935782;29;20227;-76
2022/04/23 11:03:55;;;;;;;7.55;5.50;;;17.20;96.30;;;;;;4935690;29;20591;-75
2022/04/23 11:12:22;;;;;;;5.47;4.80;;;17.40;96.40;;;;;;4920703;29;20307;-77
2022/04/23 11:14:52;;;;;;;5.45;4.95;;;17.30;95.90;;;;;;4916997;29;20643;-76
2022/04/23 11:17:30;;;;;;;6.28;5.68;;;16.90;96.30;;;;;;4916752;29;20236;-76
2022/04/23 11:19:55;;;;;;;6.47;5.68;;;16.50;97.10;;;;;;4916108;29;20271;-77
2022/04/23 11:22:22;;;;;;;7.07;5.75;;;17.00;97.20;;;;;;4899651;29;20284;-76
2022/04/23 11:24:54;;;;;;;5.85;5.22;;;17.20;97.00;;;;;;4917155;29;20177;-77
2022/04/23 11:27:25;;;;;;;6.50;5.68;;;17.30;97.20;;;;;;4930131;29;20602;-74
2022/04/23 11:29:54;;;;;;;7.57;5.32;;;17.80;97.20;;;;;;4934580;29;20289;-76
2022/04/23 11:32:27;;;;;;;6.28;5.10;;;17.70;97.10;;;;;;4935369;29;20218;-76
2022/04/23 11:35:05;;;;;;;5.57;5.07;;;17.70;97.10;;;;;;4935178;29;20204;-76
2022/04/23 11:37:32;;;;;;;6.10;4.93;;;17.50;97.00;;;;;;4934915;29;20215;-78
2022/04/23 11:40:12;;;;;;;4.72;4.30;;;17.20;96.20;;;;;;4917853;29;20182;-76
2022/04/23 11:42:42;;;;;;;5.32;3.90;;;17.30;95.90;;;;;;4936161;29;20244;-76
2022/04/23 11:45:09;;;;;;;5.00;4.20;;;17.40;95.50;;;;;;4936211;29;20693;-76
2022/04/23 11:47:35;;;;;;;4.57;4.18;;;17.80;95.50;;;;;;4935327;29;20736;-76
2022/04/23 11:50:18;;;;;;;4.43;4.03;;;18.10;95.00;;;;;;4935249;29;20203;-75
2022/04/23 11:52:45;;;;;;;6.07;4.70;;;18.10;95.10;;;;;;4936029;29;21071;-77
2022/04/23 11:55:21;;;;;;;9.35;6.13;;;17.50;95.90;;;;;;4935887;29;20198;-75
2022/04/23 11:58:01;;;;;;;6.43;5.45;;;18.00;96.20;;;;;;4923314;29;20200;-76
2022/04/23 12:00:28;;;;;;;5.55;4.85;;;18.40;95.20;;;;;;4900357;29;20223;-76
2022/04/23 12:02:54;;;;;;;5.97;5.38;;;18.10;95.70;;;;;;4901235;29;20254;-75
2022/04/23 12:05:25;;;;;;;7.07;6.32;;;17.80;96.30;;;;;;4917110;29;20276;-76
2022/04/23 12:07:51;;;;;;;5.80;5.20;;;17.80;95.80;;;;;;4927692;29;20597;-76
2022/04/23 12:10:23;;;;;;;8.27;5.85;;;18.20;95.70;;;;;;4935776;29;20179;-75
2022/04/23 12:12:50;;;;;;;7.55;5.93;;;18.60;95.70;;;;;;4919109;29;20231;-77
2022/04/23 12:15:15;;;;;;;7.25;5.72;;;18.50;95.20;;;;;;4935820;29;20226;-76
2022/04/23 12:17:46;;;;;;;5.90;5.30;;;18.50;95.60;;;;;;4934298;29;20216;-77
2022/04/23 12:20:13;;;;;;;5.95;5.35;;;18.70;95.60;;;;;;4934476;29;20696;-75
2022/04/23 12:22:39;;;;;;;5.75;5.25;;;18.20;95.20;;;;;;4934876;29;20215;-77
2022/04/23 12:25:08;;;;;;;6.32;5.63;;;18.10;95.40;;;;;;4935387;29;21053;-78
2022/04/23 12:27:59;;;;;;;5.78;5.07;;;18.20;94.80;;;;;;4924947;29;20210;-79
2022/04/23 12:41:59;;;;;;;6.57;4.80;;;18.10;94.80;;;;;;4933925;29;20218;-77
2022/04/23 12:44:35;;;;;;;4.95;4.53;;;18.20;94.80;;;;;;4934316;29;20216;-77
2022/04/23 12:47:03;;;;;;;7.13;6.25;;;18.00;94.40;;;;;;4934597;29;20210;-77
2022/04/23 12:49:49;;;;;;;6.30;5.70;;;18.00;94.70;;;;;;4899574;29;20271;-77
2022/04/23 12:52:27;;;;;;;5.47;4.63;;;17.80;94.70;;;;;;4915434;29;20172;-77
2022/04/23 12:55:22;;;;;;;8.25;4.90;;;17.90;94.50;;;;;;4916203;29;20606;-77
2022/04/23 12:58:05;;;;;;;4.90;4.40;;;17.70;94.20;;;;;;4895841;29;20242;-77
2022/04/23 13:00:33;;;;;;;5.53;4.93;;;18.00;93.90;;;;;;4898770;29;20219;-77
2022/04/23 13:03:08;;;;;;;7.63;5.80;;;18.10;93.50;;;;;;4915826;29;20205;-77
2022/04/23 13:05:33;;;;;;;6.13;4.90;;;18.10;93.80;;;;;;4915367;29;20624;-77
2022/04/23 13:10:43;;;;;;;5.10;4.60;;;18.30;94.20;;;;;;4915239;29;20255;-78
2022/04/23 13:13:09;;;;;;;5.80;4.47;;;18.50;93.90;;;;;;4915199;29;20208;-77
2022/04/23 13:15:35;;;;;;;6.25;4.45;;;18.80;93.70;;;;;;4898682;29;20187;-76
2022/04/23 13:18:02;;;;;;;6.05;4.18;;;18.80;93.60;;;;;;4914666;29;20213;-77
2022/04/23 13:20:28;;;;;;;4.97;4.25;;;18.40;93.30;;;;;;4898384;29;20215;-77